sensor_id;sensor_type;location;lat;lon;timestamp;pressure;altitude;pressure_sealevel;temperature;humidity
76609;BME280;65928;53.936;27.540;2024-01-07T00:01:24;99430.00;;;-18.27;100.00
76609;BME280;65928;53.936;27.540;2024-01-07T00:03:51;99387.84;;;-18.67;100.00
76609;BME280;65928;53.936;27.540;2024-01-07T00:06:16;99723.34;;;-16.67;100.00
76609;BME280;65928;53.936;27.540;2024-01-07T00:08:42;99659.59;;;-17.01;100.00
76609;BME280;65928;53.936;27.540;2024-01-07T00:11:07;99713.69;;;-16.73;100.00
76609;BME280;65928;53.936;27.540;2024-01-07T00:13:33;99506.41;;;-17.90;100.00
76609;BME280;65928;53.936;27.540;2024-01-07T00:15:58;99726.53;;;-16.70;100.00
76609;BME280;65928;53.936;27.540;2024-01-07T00:18:24;99452.72;;;-18.38;100.00
76609;BME280;65928;53.936;27.540;2024-01-07T00:20:50;99732.81;;;-16.89;100.00
76609;BME280;65928;53.936;27.540;2024-01-07T00:23:15;99759.81;;;-17.13;100.00
76609;BME280;65928;53.936;27.540;2024-01-07T00:25:40;99731.06;;;-17.15;100.00
76609;BME280;65928;53.936;27.540;2024-01-07T00:28:06;99628.66;;;-17.85;100.00
76609;BME280;65928;53.936;27.540;2024-01-07T00:30:31;99626.50;;;-17.92;100.00
76609;BME280;65928;53.936;27.540;2024-01-07T00:32:57;99721.31;;;-17.46;100.00
76609;BME280;65928;53.936;27.540;2024-01-07T00:35:22;99532.72;;;-18.36;100.00
76609;BME280;65928;53.936;27.540;2024-01-07T00:37:48;99169.34;;;-20.43;100.00
76609;BME280;65928;53.936;27.540;2024-01-07T00:40:13;99759.72;;;-17.14;100.00
76609;BME280;65928;53.936;27.540;2024-01-07T00:42:39;99749.81;;;-17.11;100.00
76609;BME280;65928;53.936;27.540;2024-01-07T00:45:05;99754.00;;;-17.12;100.00
76609;BME280;65928;53.936;27.540;2024-01-07T00:47:30;99698.59;;;-17.46;100.00
76609;BME280;65928;53.936;27.540;2024-01-07T00:49:56;99673.69;;;-17.67;100.00
76609;BME280;65928;53.936;27.540;2024-01-07T00:52:21;99571.59;;;-18.32;100.00
76609;BME280;65928;53.936;27.540;2024-01-07T00:54:48;99629.03;;;-17.92;100.00
76609;BME280;65928;53.936;27.540;2024-01-07T00:57:14;99708.44;;;-17.38;100.00
76609;BME280;65928;53.936;27.540;2024-01-07T00:59:39;99771.72;;;-16.99;100.00
76609;BME280;65928;53.936;27.540;2024-01-07T01:02:05;99458.50;;;-18.77;100.00
76609;BME280;65928;53.936;27.540;2024-01-07T01:04:33;99785.81;;;-17.02;100.00
76609;BME280;65928;53.936;27.540;2024-01-07T01:06:59;99581.78;;;-18.31;100.00
76609;BME280;65928;53.936;27.540;2024-01-07T01:09:24;99561.59;;;-18.44;100.00
76609;BME280;65928;53.936;27.540;2024-01-07T01:11:49;99732.03;;;-17.62;100.00
76609;BME280;65928;53.936;27.540;2024-01-07T01:14:15;99620.94;;;-18.00;100.00
76609;BME280;65928;53.936;27.540;2024-01-07T01:16:41;99726.88;;;-17.39;100.00
76609;BME280;65928;53.936;27.540;2024-01-07T01:19:06;99717.91;;;-17.47;100.00
76609;BME280;65928;53.936;27.540;2024-01-07T01:21:31;99711.69;;;-17.52;100.00
76609;BME280;65928;53.936;27.540;2024-01-07T01:23:57;99526.91;;;-18.60;100.00
76609;BME280;65928;53.936;27.540;2024-01-07T01:26:23;99782.06;;;-17.07;100.00
76609;BME280;65928;53.936;27.540;2024-01-07T01:28:48;99791.19;;;-17.09;100.00
76609;BME280;65928;53.936;27.540;2024-01-07T01:31:14;99330.94;;;-19.74;100.00
76609;BME280;65928;53.936;27.540;2024-01-07T01:33:40;99398.47;;;-19.43;100.00
76609;BME280;65928;53.936;27.540;2024-01-07T01:36:05;99671.00;;;-17.93;100.00
76609;BME280;65928;53.936;27.540;2024-01-07T01:38:31;99803.22;;;-17.18;100.00
76609;BME280;65928;53.936;27.540;2024-01-07T01:40:57;99799.84;;;-17.30;100.00
76609;BME280;65928;53.936;27.540;2024-01-07T01:43:26;99269.47;;;-20.60;100.00
76609;BME280;65928;53.936;27.540;2024-01-07T01:45:54;99855.47;;;-17.77;100.00
76609;BME280;65928;53.936;27.540;2024-01-07T01:48:19;99627.22;;;-18.89;100.00
76609;BME280;65928;53.936;27.540;2024-01-07T01:50:46;99804.13;;;-17.89;100.00
76609;BME280;65928;53.936;27.540;2024-01-07T01:53:12;99697.22;;;-18.50;100.00
76609;BME280;65928;53.936;27.540;2024-01-07T01:55:37;99740.91;;;-18.26;100.00
76609;BME280;65928;53.936;27.540;2024-01-07T01:58:03;99817.63;;;-18.00;100.00
76609;BME280;65928;53.936;27.540;2024-01-07T02:00:30;99729.19;;;-18.61;100.00
76609;BME280;65928;53.936;27.540;2024-01-07T02:02:56;99836.81;;;-18.02;100.00
76609;BME280;65928;53.936;27.540;2024-01-07T02:05:22;99744.63;;;-18.33;100.00
76609;BME280;65928;53.936;27.540;2024-01-07T02:07:48;99588.56;;;-19.24;100.00
76609;BME280;65928;53.936;27.540;2024-01-07T02:10:14;99612.41;;;-18.96;100.00
76609;BME280;65928;53.936;27.540;2024-01-07T02:12:39;99822.22;;;-17.71;100.00
76609;BME280;65928;53.936;27.540;2024-01-07T02:15:05;99819.69;;;-17.71;100.00
76609;BME280;65928;53.936;27.540;2024-01-07T02:17:31;99674.53;;;-18.62;100.00
76609;BME280;65928;53.936;27.540;2024-01-07T02:19:56;99329.19;;;-20.67;100.00
76609;BME280;65928;53.936;27.540;2024-01-07T02:22:22;99622.16;;;-19.23;100.00
76609;BME280;65928;53.936;27.540;2024-01-07T02:24:47;99682.19;;;-18.83;100.00
76609;BME280;65928;53.936;27.540;2024-01-07T02:27:13;99708.25;;;-18.71;100.00
76609;BME280;65928;53.936;27.540;2024-01-07T02:29:38;99825.09;;;-18.01;100.00
76609;BME280;65928;53.936;27.540;2024-01-07T02:32:04;99571.50;;;-19.39;100.00
76609;BME280;65928;53.936;27.540;2024-01-07T02:34:30;99699.19;;;-18.58;100.00
76609;BME280;65928;53.936;27.540;2024-01-07T02:36:55;99617.25;;;-19.33;100.00
76609;BME280;65928;53.936;27.540;2024-01-07T02:39:21;99628.06;;;-19.00;100.00
76609;BME280;65928;53.936;27.540;2024-01-07T02:41:46;99722.06;;;-18.54;100.00
76609;BME280;65928;53.936;27.540;2024-01-07T02:44:12;99765.66;;;-18.32;100.00
76609;BME280;65928;53.936;27.540;2024-01-07T02:46:37;99709.59;;;-19.09;100.00
76609;BME280;65928;53.936;27.540;2024-01-07T02:49:03;99828.69;;;-18.09;100.00
76609;BME280;65928;53.936;27.540;2024-01-07T02:51:28;99678.13;;;-18.93;100.00
76609;BME280;65928;53.936;27.540;2024-01-07T02:53:53;99830.13;;;-18.13;100.00
76609;BME280;65928;53.936;27.540;2024-01-07T02:56:19;99780.34;;;-18.38;100.00
76609;BME280;65928;53.936;27.540;2024-01-07T02:58:44;99831.56;;;-18.16;100.00
76609;BME280;65928;53.936;27.540;2024-01-07T03:01:10;99783.84;;;-18.60;100.00
76609;BME280;65928;53.936;27.540;2024-01-07T03:03:36;99795.09;;;-18.66;100.00
76609;BME280;65928;53.936;27.540;2024-01-07T03:06:01;99761.75;;;-18.97;100.00
76609;BME280;65928;53.936;27.540;2024-01-07T03:08:27;99849.84;;;-18.42;100.00
76609;BME280;65928;53.936;27.540;2024-01-07T03:10:53;99611.66;;;-19.74;100.00
76609;BME280;65928;53.936;27.540;2024-01-07T03:13:18;99447.94;;;-20.57;100.00
76609;BME280;65928;53.936;27.540;2024-01-07T03:15:45;99795.56;;;-18.48;100.00
76609;BME280;65928;53.936;27.540;2024-01-07T03:18:10;99739.56;;;-18.79;100.00
76609;BME280;65928;53.936;27.540;2024-01-07T03:20:36;99796.78;;;-18.43;100.00
76609;BME280;65928;53.936;27.540;2024-01-07T03:23:02;99858.41;;;-18.17;100.00
76609;BME280;65928;53.936;27.540;2024-01-07T03:25:27;99930.06;;;-18.25;100.00
76609;BME280;65928;53.936;27.540;2024-01-07T03:27:52;99856.63;;;-18.18;100.00
76609;BME280;65928;53.936;27.540;2024-01-07T03:30:18;99713.91;;;-18.97;100.00
76609;BME280;65928;53.936;27.540;2024-01-07T03:32:43;99781.75;;;-18.65;100.00
76609;BME280;65928;53.936;27.540;2024-01-07T03:35:09;99673.22;;;-19.36;100.00
76609;BME280;65928;53.936;27.540;2024-01-07T03:37:35;99731.84;;;-19.04;100.00
76609;BME280;65928;53.936;27.540;2024-01-07T03:40:00;99722.06;;;-19.11;100.00
76609;BME280;65928;53.936;27.540;2024-01-07T03:42:26;99801.56;;;-18.70;100.00
76609;BME280;65928;53.936;27.540;2024-01-07T03:44:51;99730.63;;;-19.42;100.00
76609;BME280;65928;53.936;27.540;2024-01-07T03:47:17;99689.44;;;-19.32;100.00
76609;BME280;65928;53.936;27.540;2024-01-07T03:49:42;99852.66;;;-18.49;100.00
76609;BME280;65928;53.936;27.540;2024-01-07T03:52:08;99854.88;;;-18.42;100.00
76609;BME280;65928;53.936;27.540;2024-01-07T03:54:34;99814.22;;;-18.80;100.00
76609;BME280;65928;53.936;27.540;2024-01-07T03:56:59;99862.72;;;-18.37;100.00
76609;BME280;65928;53.936;27.540;2024-01-07T03:59:25;99752.22;;;-19.01;100.00
76609;BME280;65928;53.936;27.540;2024-01-07T04:01:54;99875.31;;;-18.49;100.00
76609;BME280;65928;53.936;27.540;2024-01-07T04:04:19;99863.06;;;-18.44;100.00
76609;BME280;65928;53.936;27.540;2024-01-07T04:06:45;99703.16;;;-19.50;100.00
76609;BME280;65928;53.936;27.540;2024-01-07T04:09:10;99868.31;;;-18.53;100.00
76609;BME280;65928;53.936;27.540;2024-01-07T04:11:42;99268.81;;;-22.01;100.00
76609;BME280;65928;53.936;27.540;2024-01-07T04:14:08;99820.56;;;-18.85;100.00
76609;BME280;65928;53.936;27.540;2024-01-07T04:16:34;99907.34;;;-18.48;100.00
76609;BME280;65928;53.936;27.540;2024-01-07T04:18:59;99876.84;;;-18.51;100.00
76609;BME280;65928;53.936;27.540;2024-01-07T04:21:24;99876.63;;;-18.54;100.00
76609;BME280;65928;53.936;27.540;2024-01-07T04:23:50;99763.81;;;-19.24;100.00
76609;BME280;65928;53.936;27.540;2024-01-07T04:26:15;99700.25;;;-19.67;100.00
76609;BME280;65928;53.936;27.540;2024-01-07T04:28:41;99876.28;;;-18.59;100.00
76609;BME280;65928;53.936;27.540;2024-01-07T04:31:07;99878.63;;;-18.50;100.00
76609;BME280;65928;53.936;27.540;2024-01-07T04:33:33;99744.78;;;-19.32;100.00
76609;BME280;65928;53.936;27.540;2024-01-07T04:35:58;99872.44;;;-18.65;100.00
76609;BME280;65928;53.936;27.540;2024-01-07T04:38:24;99916.31;;;-18.51;100.00
76609;BME280;65928;53.936;27.540;2024-01-07T04:40:50;99587.53;;;-20.27;100.00
76609;BME280;65928;53.936;27.540;2024-01-07T04:43:19;99297.94;;;-21.92;100.00
76609;BME280;65928;53.936;27.540;2024-01-07T04:45:45;99864.66;;;-18.68;100.00
76609;BME280;65928;53.936;27.540;2024-01-07T04:48:10;99721.22;;;-19.44;100.00
76609;BME280;65928;53.936;27.540;2024-01-07T04:50:36;99823.94;;;-18.84;100.00
76609;BME280;65928;53.936;27.540;2024-01-07T04:53:02;99856.84;;;-18.49;100.00
76609;BME280;65928;53.936;27.540;2024-01-07T04:55:28;99825.75;;;-18.72;100.00
76609;BME280;65928;53.936;27.540;2024-01-07T04:57:53;99879.09;;;-18.32;100.00
76609;BME280;65928;53.936;27.540;2024-01-07T05:00:18;99885.69;;;-18.23;100.00
76609;BME280;65928;53.936;27.540;2024-01-07T05:02:44;99726.22;;;-19.11;100.00
76609;BME280;65928;53.936;27.540;2024-01-07T05:05:09;99748.16;;;-18.99;100.00
76609;BME280;65928;53.936;27.540;2024-01-07T05:07:35;99899.91;;;-18.23;100.00
76609;BME280;65928;53.936;27.540;2024-01-07T05:10:00;99822.28;;;-18.62;100.00
76609;BME280;65928;53.936;27.540;2024-01-07T05:12:26;99639.22;;;-19.76;100.00
76609;BME280;65928;53.936;27.540;2024-01-07T05:14:52;99887.25;;;-18.58;100.00
76609;BME280;65928;53.936;27.540;2024-01-07T05:17:17;99466.56;;;-21.19;100.00
76609;BME280;65928;53.936;27.540;2024-01-07T05:19:42;99897.84;;;-18.62;100.00
76609;BME280;65928;53.936;27.540;2024-01-07T05:22:08;99665.22;;;-19.97;100.00
76609;BME280;65928;53.936;27.540;2024-01-07T05:24:36;99914.38;;;-18.44;100.00
76609;BME280;65928;53.936;27.540;2024-01-07T05:27:02;99740.94;;;-19.39;100.00
76609;BME280;65928;53.936;27.540;2024-01-07T05:29:28;99975.91;;;-18.40;100.00
76609;BME280;65928;53.936;27.540;2024-01-07T05:31:54;99343.19;;;-21.79;100.00
76609;BME280;65928;53.936;27.540;2024-01-07T05:34:19;99912.66;;;-18.55;100.00
76609;BME280;65928;53.936;27.540;2024-01-07T05:36:44;99859.88;;;-19.08;100.00
76609;BME280;65928;53.936;27.540;2024-01-07T05:39:10;99492.50;;;-21.19;100.00
76609;BME280;65928;53.936;27.540;2024-01-07T05:41:37;99792.06;;;-19.50;100.00
76609;BME280;65928;53.936;27.540;2024-01-07T05:44:06;99838.22;;;-19.28;100.00
76609;BME280;65928;53.936;27.540;2024-01-07T05:46:31;99933.69;;;-18.76;100.00
76609;BME280;65928;53.936;27.540;2024-01-07T05:48:57;99816.00;;;-19.55;100.00
76609;BME280;65928;53.936;27.540;2024-01-07T05:51:22;99935.53;;;-18.85;100.00
76609;BME280;65928;53.936;27.540;2024-01-07T05:53:47;99952.00;;;-18.79;100.00
76609;BME280;65928;53.936;27.540;2024-01-07T05:56:13;99811.78;;;-19.44;100.00
76609;BME280;65928;53.936;27.540;2024-01-07T05:58:39;99811.59;;;-19.58;100.00
76609;BME280;65928;53.936;27.540;2024-01-07T06:01:04;99935.53;;;-18.85;100.00
76609;BME280;65928;53.936;27.540;2024-01-07T06:03:30;99503.69;;;-21.25;100.00
76609;BME280;65928;53.936;27.540;2024-01-07T06:05:55;99897.00;;;-19.06;100.00
76609;BME280;65928;53.936;27.540;2024-01-07T06:08:20;99567.09;;;-20.85;100.00
76609;BME280;65928;53.936;27.540;2024-01-07T06:10:46;99783.53;;;-19.74;100.00
76609;BME280;65928;53.936;27.540;2024-01-07T06:13:11;99946.66;;;-18.72;100.00
76609;BME280;65928;53.936;27.540;2024-01-07T06:15:37;99627.31;;;-20.75;100.00
76609;BME280;65928;53.936;27.540;2024-01-07T06:18:02;99574.22;;;-20.79;100.00
76609;BME280;65928;53.936;27.540;2024-01-07T06:20:28;99837.41;;;-19.38;100.00
76609;BME280;65928;53.936;27.540;2024-01-07T06:22:53;99870.41;;;-19.02;100.00
76609;BME280;65928;53.936;27.540;2024-01-07T06:25:19;99805.63;;;-19.48;100.00
76609;BME280;65928;53.936;27.540;2024-01-07T06:27:45;99846.88;;;-19.24;100.00
76609;BME280;65928;53.936;27.540;2024-01-07T06:30:11;99949.06;;;-18.73;100.00
76609;BME280;65928;53.936;27.540;2024-01-07T06:32:36;99853.75;;;-19.65;100.00
76609;BME280;65928;53.936;27.540;2024-01-07T06:35:02;99960.19;;;-18.60;100.00
76609;BME280;65928;53.936;27.540;2024-01-07T06:37:31;99728.50;;;-20.12;100.00
76609;BME280;65928;53.936;27.540;2024-01-07T06:39:57;99956.44;;;-18.65;100.00
76609;BME280;65928;53.936;27.540;2024-01-07T06:42:23;99822.25;;;-19.50;100.00
76609;BME280;65928;53.936;27.540;2024-01-07T06:44:49;99973.72;;;-18.69;100.00
76609;BME280;65928;53.936;27.540;2024-01-07T06:47:14;99902.91;;;-19.05;100.00
76609;BME280;65928;53.936;27.540;2024-01-07T06:49:40;99899.47;;;-19.39;100.00
76609;BME280;65928;53.936;27.540;2024-01-07T06:52:06;99557.84;;;-21.17;100.00
76609;BME280;65928;53.936;27.540;2024-01-07T06:54:31;99923.81;;;-19.06;100.00
76609;BME280;65928;53.936;27.540;2024-01-07T06:56:57;99761.72;;;-19.95;100.00
76609;BME280;65928;53.936;27.540;2024-01-07T06:59:22;99914.84;;;-19.03;100.00
76609;BME280;65928;53.936;27.540;2024-01-07T07:01:48;99917.38;;;-19.03;100.00
76609;BME280;65928;53.936;27.540;2024-01-07T07:04:13;99992.09;;;-18.70;100.00
76609;BME280;65928;53.936;27.540;2024-01-07T07:06:39;99995.63;;;-18.68;100.00
76609;BME280;65928;53.936;27.540;2024-01-07T07:09:05;99647.84;;;-20.69;100.00
76609;BME280;65928;53.936;27.540;2024-01-07T07:11:30;99766.53;;;-19.98;100.00
76609;BME280;65928;53.936;27.540;2024-01-07T07:13:56;99996.88;;;-18.63;100.00
76609;BME280;65928;53.936;27.540;2024-01-07T07:16:22;99998.16;;;-18.68;100.00
76609;BME280;65928;53.936;27.540;2024-01-07T07:18:48;99937.63;;;-19.01;100.00
76609;BME280;65928;53.936;27.540;2024-01-07T07:21:13;99712.44;;;-20.36;100.00
76609;BME280;65928;53.936;27.540;2024-01-07T07:23:39;99918.38;;;-19.01;100.00
76609;BME280;65928;53.936;27.540;2024-01-07T07:26:04;99999.09;;;-18.56;100.00
76609;BME280;65928;53.936;27.540;2024-01-07T07:28:30;100021.72;;;-18.46;100.00
76609;BME280;65928;53.936;27.540;2024-01-07T07:30:55;99620.91;;;-20.71;100.00
76609;BME280;65928;53.936;27.540;2024-01-07T07:33:20;100017.13;;;-18.40;100.00
76609;BME280;65928;53.936;27.540;2024-01-07T07:35:46;99701.06;;;-20.21;100.00
76609;BME280;65928;53.936;27.540;2024-01-07T07:38:11;100031.72;;;-18.36;100.00
76609;BME280;65928;53.936;27.540;2024-01-07T07:40:37;99971.44;;;-18.66;100.00
76609;BME280;65928;53.936;27.540;2024-01-07T07:43:02;99976.31;;;-18.58;100.00
76609;BME280;65928;53.936;27.540;2024-01-07T07:45:28;99915.22;;;-18.77;100.00
76609;BME280;65928;53.936;27.540;2024-01-07T07:47:53;99940.94;;;-18.81;100.00
76609;BME280;65928;53.936;27.540;2024-01-07T07:50:18;99648.75;;;-20.36;100.00
76609;BME280;65928;53.936;27.540;2024-01-07T07:52:44;99883.16;;;-19.11;100.00
76609;BME280;65928;53.936;27.540;2024-01-07T07:55:10;99971.09;;;-18.37;100.00
76609;BME280;65928;53.936;27.540;2024-01-07T07:57:36;100048.03;;;-17.88;100.00
76609;BME280;65928;53.936;27.540;2024-01-07T08:00:03;100049.69;;;-17.88;100.00
76609;BME280;65928;53.936;27.540;2024-01-07T08:02:30;100032.16;;;-18.30;100.00
76609;BME280;65928;53.936;27.540;2024-01-07T08:04:56;99950.16;;;-18.48;100.00
76609;BME280;65928;53.936;27.540;2024-01-07T08:07:21;100049.25;;;-17.83;100.00
76609;BME280;65928;53.936;27.540;2024-01-07T08:09:47;99929.47;;;-18.44;100.00
76609;BME280;65928;53.936;27.540;2024-01-07T08:12:12;100048.66;;;-17.69;100.00
76609;BME280;65928;53.936;27.540;2024-01-07T08:14:38;99994.00;;;-18.13;100.00
76609;BME280;65928;53.936;27.540;2024-01-07T08:17:07;99946.59;;;-18.28;100.00
76609;BME280;65928;53.936;27.540;2024-01-07T08:19:32;99988.53;;;-18.07;100.00
76609;BME280;65928;53.936;27.540;2024-01-07T08:21:57;100035.22;;;-17.79;100.00
76609;BME280;65928;53.936;27.540;2024-01-07T08:24:23;99721.00;;;-19.47;100.00
76609;BME280;65928;53.936;27.540;2024-01-07T08:26:48;99926.97;;;-18.32;100.00
76609;BME280;65928;53.936;27.540;2024-01-07T08:29:14;100061.75;;;-17.28;100.00
76609;BME280;65928;53.936;27.540;2024-01-07T08:31:39;99953.81;;;-18.00;100.00
76609;BME280;65928;53.936;27.540;2024-01-07T08:34:05;100066.91;;;-17.38;100.00
76609;BME280;65928;53.936;27.540;2024-01-07T08:36:30;99964.13;;;-17.85;100.00
76609;BME280;65928;53.936;27.540;2024-01-07T08:38:56;100037.94;;;-17.54;100.00
76609;BME280;65928;53.936;27.540;2024-01-07T08:41:21;100073.41;;;-17.18;100.00
76609;BME280;65928;53.936;27.540;2024-01-07T08:43:46;100068.16;;;-17.10;100.00
76609;BME280;65928;53.936;27.540;2024-01-07T08:46:12;100072.88;;;-17.03;100.00
76609;BME280;65928;53.936;27.540;2024-01-07T08:48:39;100080.25;;;-16.94;100.00
76609;BME280;65928;53.936;27.540;2024-01-07T08:51:05;100011.03;;;-17.54;100.00
76609;BME280;65928;53.936;27.540;2024-01-07T08:53:31;100021.91;;;-17.20;100.00
76609;BME280;65928;53.936;27.540;2024-01-07T08:55:56;99972.94;;;-17.45;100.00
76609;BME280;65928;53.936;27.540;2024-01-07T08:58:22;100086.06;;;-16.72;100.00
76609;BME280;65928;53.936;27.540;2024-01-07T09:00:47;100074.66;;;-16.79;100.00
76609;BME280;65928;53.936;27.540;2024-01-07T09:03:13;100050.78;;;-16.82;100.00
76609;BME280;65928;53.936;27.540;2024-01-07T09:05:38;100030.72;;;-16.92;100.00
76609;BME280;65928;53.936;27.540;2024-01-07T09:08:04;100020.47;;;-17.05;100.00
76609;BME280;65928;53.936;27.540;2024-01-07T09:10:30;99653.66;;;-19.17;100.00
76609;BME280;65928;53.936;27.540;2024-01-07T09:12:56;100094.78;;;-16.32;100.00
76609;BME280;65928;53.936;27.540;2024-01-07T09:15:21;100034.78;;;-16.46;100.00
76609;BME280;65928;53.936;27.540;2024-01-07T09:17:47;99907.63;;;-17.18;100.00
76609;BME280;65928;53.936;27.540;2024-01-07T09:20:13;100091.56;;;-16.30;100.00
76609;BME280;65928;53.936;27.540;2024-01-07T09:22:38;100034.84;;;-16.58;100.00
76609;BME280;65928;53.936;27.540;2024-01-07T09:25:05;100000.47;;;-16.43;100.00
76609;BME280;65928;53.936;27.540;2024-01-07T09:27:31;100084.72;;;-16.08;100.00
76609;BME280;65928;53.936;27.540;2024-01-07T09:29:56;100053.34;;;-15.98;100.00
76609;BME280;65928;53.936;27.540;2024-01-07T09:32:23;100084.31;;;-15.78;100.00
76609;BME280;65928;53.936;27.540;2024-01-07T09:34:49;100038.06;;;-15.75;100.00
76609;BME280;65928;53.936;27.540;2024-01-07T09:37:14;99269.25;;;-20.39;100.00
76609;BME280;65928;53.936;27.540;2024-01-07T09:39:41;99947.16;;;-16.59;100.00
76609;BME280;65928;53.936;27.540;2024-01-07T09:42:14;100093.38;;;-15.43;100.00
76609;BME280;65928;53.936;27.540;2024-01-07T09:44:43;100084.44;;;-15.63;100.00
76609;BME280;65928;53.936;27.540;2024-01-07T09:47:13;99953.44;;;-16.16;100.00
76609;BME280;65928;53.936;27.540;2024-01-07T09:49:39;100078.03;;;-15.20;100.00
76609;BME280;65928;53.936;27.540;2024-01-07T09:52:05;100085.09;;;-14.90;100.00
76609;BME280;65928;53.936;27.540;2024-01-07T09:54:32;100058.38;;;-14.98;100.00
76609;BME280;65928;53.936;27.540;2024-01-07T09:57:03;100033.13;;;-14.97;100.00
76609;BME280;65928;53.936;27.540;2024-01-07T09:59:29;100079.63;;;-14.70;100.00
76609;BME280;65928;53.936;27.540;2024-01-07T10:01:56;99393.25;;;-18.86;100.00
76609;BME280;65928;53.936;27.540;2024-01-07T10:04:23;99682.69;;;-17.45;100.00
76609;BME280;65928;53.936;27.540;2024-01-07T10:06:48;100061.56;;;-15.64;100.00
76609;BME280;65928;53.936;27.540;2024-01-07T10:09:15;100062.03;;;-15.70;100.00
76609;BME280;65928;53.936;27.540;2024-01-07T10:11:40;99934.53;;;-16.71;100.00
76609;BME280;65928;53.936;27.540;2024-01-07T10:14:06;100083.06;;;-15.46;100.00
76609;BME280;65928;53.936;27.540;2024-01-07T10:16:32;99965.16;;;-16.05;100.00
76609;BME280;65928;53.936;27.540;2024-01-07T10:18:58;99991.72;;;-15.99;100.00
76609;BME280;65928;53.936;27.540;2024-01-07T10:21:23;99920.66;;;-16.15;100.00
76609;BME280;65928;53.936;27.540;2024-01-07T10:23:49;100077.94;;;-14.96;100.00
76609;BME280;65928;53.936;27.540;2024-01-07T10:26:15;99967.75;;;-15.79;100.00
76609;BME280;65928;53.936;27.540;2024-01-07T10:28:41;100031.41;;;-15.35;100.00
76609;BME280;65928;53.936;27.540;2024-01-07T10:31:08;100030.53;;;-15.49;100.00
76609;BME280;65928;53.936;27.540;2024-01-07T10:33:34;99879.03;;;-16.31;100.00
76609;BME280;65928;53.936;27.540;2024-01-07T10:36:05;100078.59;;;-15.11;100.00
76609;BME280;65928;53.936;27.540;2024-01-07T10:38:32;100093.47;;;-15.42;100.00
76609;BME280;65928;53.936;27.540;2024-01-07T10:41:01;100101.56;;;-15.34;100.00
76609;BME280;65928;53.936;27.540;2024-01-07T10:43:29;100090.41;;;-15.62;100.00
76609;BME280;65928;53.936;27.540;2024-01-07T10:45:55;100097.28;;;-15.48;100.00
76609;BME280;65928;53.936;27.540;2024-01-07T10:48:25;100090.94;;;-15.42;100.00
76609;BME280;65928;53.936;27.540;2024-01-07T10:50:56;100093.84;;;-15.49;100.00
76609;BME280;65928;53.936;27.540;2024-01-07T10:53:28;100061.13;;;-15.46;100.00
76609;BME280;65928;53.936;27.540;2024-01-07T10:56:08;99725.34;;;-17.37;100.00
76609;BME280;65928;53.936;27.540;2024-01-07T10:58:36;100068.69;;;-15.59;100.00
76609;BME280;65928;53.936;27.540;2024-01-07T11:01:03;100082.06;;;-15.35;100.00
76609;BME280;65928;53.936;27.540;2024-01-07T11:03:37;100092.97;;;-15.49;100.00
76609;BME280;65928;53.936;27.540;2024-01-07T11:06:14;100014.16;;;-15.92;100.00
76609;BME280;65928;53.936;27.540;2024-01-07T11:08:54;100073.34;;;-15.65;100.00
76609;BME280;65928;53.936;27.540;2024-01-07T11:11:26;100075.16;;;-15.38;100.00
76609;BME280;65928;53.936;27.540;2024-01-07T11:13:51;99941.34;;;-15.96;100.00
76609;BME280;65928;53.936;27.540;2024-01-07T11:16:56;100092.91;;;-15.25;100.00
76609;BME280;65928;53.936;27.540;2024-01-07T11:19:21;100099.97;;;-15.58;100.00
76609;BME280;65928;53.936;27.540;2024-01-07T11:21:51;99931.44;;;-16.42;100.00
76609;BME280;65928;53.936;27.540;2024-01-07T11:24:38;100090.41;;;-15.62;100.00
76609;BME280;65928;53.936;27.540;2024-01-07T11:27:04;99941.19;;;-16.48;100.00
76609;BME280;65928;53.936;27.540;2024-01-07T11:29:31;99924.13;;;-16.75;100.00
76609;BME280;65928;53.936;27.540;2024-01-07T11:31:57;99979.19;;;-16.22;100.00
76609;BME280;65928;53.936;27.540;2024-01-07T11:34:54;100091.91;;;-15.53;100.00
76609;BME280;65928;53.936;27.540;2024-01-07T11:37:22;100091.78;;;-15.79;100.00
76609;BME280;65928;53.936;27.540;2024-01-07T11:39:50;100089.84;;;-15.95;100.00
76609;BME280;65928;53.936;27.540;2024-01-07T11:42:19;100092.75;;;-16.02;100.00
76609;BME280;65928;53.936;27.540;2024-01-07T11:44:48;100048.59;;;-16.30;100.00
76609;BME280;65928;53.936;27.540;2024-01-07T11:47:18;99792.28;;;-17.67;100.00
76609;BME280;65928;53.936;27.540;2024-01-07T11:49:44;99749.88;;;-18.07;100.00
76609;BME280;65928;53.936;27.540;2024-01-07T11:52:09;100091.63;;;-15.94;100.00
76609;BME280;65928;53.936;27.540;2024-01-07T11:54:37;99966.72;;;-16.68;100.00
76609;BME280;65928;53.936;27.540;2024-01-07T11:57:03;100091.63;;;-15.94;100.00
76609;BME280;65928;53.936;27.540;2024-01-07T11:59:29;100103.66;;;-16.03;100.00
76609;BME280;65928;53.936;27.540;2024-01-07T12:01:55;99860.19;;;-17.22;100.00
76609;BME280;65928;53.936;27.540;2024-01-07T12:04:20;100079.53;;;-15.98;100.00
76609;BME280;65928;53.936;27.540;2024-01-07T12:06:47;100088.81;;;-15.73;100.00
76609;BME280;65928;53.936;27.540;2024-01-07T12:09:12;100087.41;;;-15.82;100.00
76609;BME280;65928;53.936;27.540;2024-01-07T12:11:39;99883.34;;;-17.04;100.00
76609;BME280;65928;53.936;27.540;2024-01-07T12:14:07;100010.97;;;-16.25;100.00
76609;BME280;65928;53.936;27.540;2024-01-07T12:16:33;100088.81;;;-15.73;100.00
76609;BME280;65928;53.936;27.540;2024-01-07T12:18:59;99937.47;;;-16.40;100.00
76609;BME280;65928;53.936;27.540;2024-01-07T12:21:25;100091.41;;;-15.47;100.00
76609;BME280;65928;53.936;27.540;2024-01-07T12:23:53;100032.84;;;-15.65;100.00